• Join FlightAware (Why Join?)
  • Login
  • US Flag 
08:31AM EDT


 

Airport Tracker/Info


-or-


 

Live Flight TrackerFlight Track Log ✈ TAM3134 ✈ 17-Jun-2013 ✈ SBSP / CGH - SBVT / VIX

Flight Track Log - Related Links

Times and Time Zones

All times are in EDT time to prevent confusion due to time zone crossing. See the TAM3134 flight status page for this flight to view local times or setup timezone preferences in your user account.

Time Position Orientation Groundspeed Altitude Reporting Facility
EDT Latitude Longitude Course Direction KTS MPH feet Rate Location/Type
04:16PM -23.6260 -46.6580 53° Northeast  Level FlightAware
04:16PM -23.6280 -46.6570 155° Southeast 660 Level FlightAware
04:19PM -23.5318 -46.4638 62° Northeast  Level Estimated
04:20PM -23.4840 -46.3681 61° Northeast  Level Estimated
04:20PM -23.6270 -46.6570 61° Northeast  Level FlightAware
04:20PM -23.6150 -46.6640 332° Northwest 154 177 2,900 4,500 Climbing FlightAware
04:20PM -23.5910 -46.6780 332° Northwest 184 212 4,000 2,100 Climbing FlightAware
04:21PM -23.5720 -46.6600 41° Northeast 223 257 4,900 1,860 Climbing FlightAware
04:21PM -23.5870 -46.6190 112° Southeast 267 307 5,800 1,200 Climbing FlightAware
04:22PM -23.6060 -46.5870 123° Southeast 291 335 6,100 1,140 Climbing FlightAware
04:22PM -23.6080 -46.5720 98° East 297 342 6,500 2,400 Climbing FlightAware
04:23PM -23.5990 -46.5230 79° East 300 345 7,900 2,400 Climbing FlightAware
04:23PM -23.5890 -46.4810 75° East 308 354 9,000 2,400 Climbing FlightAware
04:23PM -23.5850 -46.4620 77° East 314 361 9,500 1,620 Climbing FlightAware
04:24PM -23.5770 -46.4250 77° East 318 366 10,000 840 Climbing FlightAware
04:24PM -23.5600 -46.3510 76° East 323 372 10,500 1,320 Climbing FlightAware
04:25PM -23.5450 -46.2840 76° East 351 404 12,000 1,980 Climbing FlightAware
04:26PM -23.5270 -46.2020 77° East 384 442 13,400 2,100 Climbing FlightAware
04:27PM -23.5090 -46.1260 76° East 395 455 15,000 2,280 Climbing FlightAware
04:27PM -23.4840 -46.0210 75° East 406 467 17,100 2,220 Climbing FlightAware
04:28PM -23.4650 -45.9420 75° East 414 476 18,600 2,220 Climbing FlightAware
04:29PM -23.4300 -45.8540 67° East 422 486 20,300 1,920 Climbing FlightAware
04:30PM -23.3940 -45.7760 63° Northeast 437 503 21,400 1,920 Climbing FlightAware
04:30PM -23.3530 -45.6890 63° Northeast 438 504 23,000 1,800 Climbing FlightAware
04:31PM -23.3140 -45.6070 63° Northeast 457 526 24,000 1,620 Climbing FlightAware
04:32PM -23.2760 -45.5260 63° Northeast 464 534 25,200 1,680 Climbing FlightAware
04:32PM -23.2290 -45.4300 62° Northeast 469 540 26,400 1,680 Climbing FlightAware
04:33PM -23.1840 -45.3360 63° Northeast 469 540 27,800 1,800 Climbing FlightAware
04:34PM -23.1440 -45.2530 62° Northeast 471 542 29,000 1,620 Climbing FlightAware
04:34PM -23.1090 -45.1770 63° Northeast 477 549 30,000 1,800 Climbing FlightAware
04:35PM -23.0780 -45.0760 72° East 472 543 31,400 1,860 Climbing FlightAware
04:36PM -23.0540 -44.9850 74° East 470 541 32,500 1,080 Climbing FlightAware
04:37PM -23.0170 -44.8860 68° East 466 536 33,000 300 Climbing FlightAware
04:37PM -22.9840 -44.7980 68° East 466 536 33,000  Level FlightAware
04:38PM -22.9510 -44.7100 68° East 471 542 33,000  Level FlightAware
04:39PM -22.9170 -44.6190 68° East 468 539 33,000  Level FlightAware
04:39PM -22.8780 -44.5140 68° East 461 531 33,000  Level FlightAware
04:40PM -22.8470 -44.4310 68° East 466 536 33,000  Level FlightAware
04:41PM -22.8130 -44.3410 68° East 475 547 33,000  Level FlightAware
04:41PM -22.7790 -44.2480 68° East 476 548 33,000  Level FlightAware
04:42PM -22.7460 -44.1610 68° East 476 548 33,000  Level FlightAware
04:43PM -22.7090 -44.0630 68° East 476 548 33,000  Level FlightAware
04:44PM -22.6770 -43.9780 68° East 475 547 33,000  Level FlightAware
04:44PM -22.6410 -43.8840 67° East 475 547 33,000  Level FlightAware
04:45PM -22.6010 -43.7790 68° East 476 548 33,000  Level FlightAware
04:46PM -22.5630 -43.6840 67° East 474 545 33,000  Level FlightAware
04:46PM -22.5150 -43.6090 55° Northeast 473 544 33,000  Level FlightAware
04:47PM -22.4550 -43.5150 55° Northeast 474 545 33,000  Level FlightAware
04:48PM -22.4070 -43.4380 56° Northeast 475 547 33,000  Level FlightAware
04:49PM -22.3350 -43.3260 55° Northeast 473 544 33,000  Level FlightAware
04:49PM -22.2800 -43.2400 55° Northeast 471 542 33,000  Level FlightAware
04:50PM -22.2300 -43.1620 55° Northeast 470 541 33,000  Level FlightAware
04:51PM -22.1810 -43.0850 56° Northeast 470 541 33,000  Level FlightAware
04:52PM -22.1290 -43.0050 55° Northeast 471 542 33,000  Level FlightAware
04:52PM -22.0740 -42.9200 55° Northeast 470 541 33,000  Level FlightAware
04:53PM -22.0250 -42.8430 56° Northeast 472 543 33,000  Level FlightAware
04:54PM -21.9740 -42.7650 55° Northeast 473 544 33,000  Level FlightAware
04:54PM -21.9140 -42.6720 55° Northeast 474 545 33,000  Level FlightAware
04:55PM -21.8680 -42.6010 55° Northeast 476 548 33,000  Level FlightAware
04:56PM -21.8110 -42.5130 55° Northeast 474 545 33,000  Level FlightAware
04:56PM -21.7590 -42.4330 55° Northeast 473 544 33,000  Level FlightAware
04:57PM -21.7050 -42.3510 55° Northeast 474 545 33,000  Level FlightAware
04:58PM -21.6550 -42.2730 55° Northeast 475 547 33,000  Level FlightAware
04:59PM -21.5870 -42.1710 54° Northeast 473 544 33,000  Level FlightAware
04:59PM -21.5480 -42.1130 54° Northeast 473 544 33,000 -1,500 Level FlightAware
05:00PM -21.4780 -42.0020 56° Northeast 461 531 31,000 -2,520 Descending FlightAware
05:01PM -21.4290 -41.9280 55° Northeast 465 535 29,400 -2,220 Descending FlightAware
05:02PM -21.3720 -41.8420 55° Northeast 458 527 27,900 -1,980 Descending FlightAware
05:02PM -21.3220 -41.7660 55° Northeast 450 518 26,600 -1,020 Descending FlightAware
05:03PM -21.2830 -41.7060 55° Northeast 450 518 26,600 -1,440 Level FlightAware
05:04PM -21.2520 -41.6590 55° Northeast 436 502 24,700 -2,340 Descending FlightAware
05:05PM -21.1880 -41.5620 55° Northeast 424 488 22,900 -1,920 Descending FlightAware
05:05PM -21.1360 -41.4840 54° Northeast 416 479 21,500 -1,800 Descending FlightAware
05:06PM -21.0930 -41.4180 55° Northeast 409 471 20,300 -1,680 Descending FlightAware
05:07PM -21.0480 -41.3510 54° Northeast 400 460 19,200 -1,680 Descending FlightAware
05:07PM -21.0110 -41.2940 55° Northeast 394 453 18,200 -1,620 Descending FlightAware
05:08PM -20.9620 -41.2220 54° Northeast 382 440 17,000 -1,560 Descending FlightAware
05:09PM -20.9200 -41.1590 54° Northeast 376 433 15,900 -1,500 Descending FlightAware
05:09PM -20.8800 -41.0980 55° Northeast 370 426 14,900 -1,560 Descending FlightAware
05:10PM -20.8410 -41.0390 55° Northeast 364 419 13,800 -1,800 Descending FlightAware
05:11PM -20.7890 -40.9600 55° Northeast 365 420 12,100 -1,920 Descending FlightAware
05:12PM -20.7470 -40.8880 58° Northeast 358 412 10,600 -1,500 Descending FlightAware
05:12PM -20.7150 -40.8330 58° Northeast 336 387 10,000 -900 Descending FlightAware
05:13PM -20.7010 -40.8090 58° Northeast 322 371 9,800 -1,260 Descending FlightAware
05:13PM -20.6740 -40.7630 58° Northeast 312 359 9,000 -1,620 Descending FlightAware
05:14PM -20.6550 -40.7310 58° Northeast 307 353 8,400 -1,620 Descending FlightAware
05:14PM -20.6320 -40.6920 58° Northeast 300 345 7,600 -1,500 Descending FlightAware
05:15PM -20.6110 -40.6580 57° Northeast 297 342 6,900 -1,440 Descending FlightAware
05:15PM -20.5950 -40.6300 59° Northeast 294 338 6,300 -1,320 Descending FlightAware
05:16PM -20.5720 -40.5910 58° Northeast 296 341 5,700 -1,260 Descending FlightAware
05:16PM -20.5540 -40.5620 56° Northeast 286 329 5,200 -1,320 Descending FlightAware
05:16PM -20.5420 -40.5400 60° Northeast 280 322 4,800 -1,140 Descending FlightAware
05:17PM -20.5270 -40.5150 57° Northeast 275 316 4,400 -1,140 Descending FlightAware
05:17PM -20.5130 -40.4900 59° Northeast 271 312 4,000 -780 Descending FlightAware
05:17PM -20.4980 -40.4660 56° Northeast 247 284 3,900  Descending FlightAware
05:18PM -20.4820 -40.4390 58° Northeast 226 260 4,000  Climbing FlightAware
05:18PM -20.4750 -40.4290 53° Northeast 220 253 3,900 -600 Descending FlightAware
05:18PM -20.4610 -40.4200 31° Northeast 213 245 3,700 -300 Descending FlightAware
05:19PM -20.4400 -40.4070 30° Northeast 199 229 3,700  Level FlightAware
05:19PM -20.4170 -40.3920 31° Northeast 195 224 3,700 -300 Level FlightAware
05:20PM -20.3940 -40.3760 33° Northeast 185 213 3,400 -840 Descending FlightAware
05:20PM -20.3780 -40.3660 30° Northeast 182 209 3,000 -1,020 Descending FlightAware
05:21PM -20.3630 -40.3560 32° Northeast 169 194 2,600 -1,020 Descending FlightAware
05:21PM -20.3440 -40.3430 33° Northeast 149 171 2,100 -1,020 Descending FlightAware
05:22PM -20.3270 -40.3320 31° Northeast 124 143 1,600 -780 Descending FlightAware
05:22PM -20.3160 -40.3250 31° Northeast 121 139 1,400 -720 Descending FlightAware
05:23PM -20.3010 -40.3150 32° Northeast 121 139 1,000 -840 Descending FlightAware
05:23PM -20.2860 -40.3050 32° Northeast 119 137 600 -900 Descending FlightAware
05:23PM -20.2740 -40.2980 29° Northeast 118 136 200 -960 Descending FlightAware
05:24PM -20.2610 -40.2890 33° Northeast 117 135 -420 Descending FlightAware
05:24PM -20.2560 -40.2860 29° Northeast 111 128  Level FlightAware
05:25PM -20.2550 -40.2850 43° Northeast 111 128  Level FlightAware
05:25PM -20.2570 -40.2860 205° Southwest 111 128  Level FlightAware
05:26PM -20.2600 -40.2900 231° Southwest 111 128  Level FlightAware
05:27PM -20.2580 -40.2890 25° Northeast 111 128  Level FlightAware
05:29PM -20.2620 -40.2770 110° East 111 128  Level FlightAware
05:30PM -20.2580 -40.2890 290° West 111 128  Level FlightAware
05:31PM -20.2620 -40.2780 111° Southeast 111 128  Level FlightAware
05:32PM -20.2580 -40.2890 291° West 111 128  Level FlightAware
05:33PM -20.2620 -40.2770 110° East 111 128  Level FlightAware
05:34PM -20.2620 -40.2780 270° West 111 128  Level FlightAware
05:34PM -20.2580 -40.2890 291° West 111 128  Level FlightAware
05:35PM -20.2620 -40.2770 110° East 111 128  Level FlightAware
05:38PM -20.2581 -40.2864 294° West  Level Estimated
05:39PM -20.2581 -40.2864 13° North  Level Estimated
05:40PM -20.2581 -40.2864 13° North  Level Estimated
05:41PM -20.2581 -40.2864 13° North  Level Estimated
05:42PM -20.2581 -40.2864 13° North  Level Estimated
05:43PM -20.2581 -40.2864 13° North  Level Estimated
05:44PM -20.2581 -40.2864 13° North  Level Estimated
05:45PM -20.2581 -40.2864 13° North  Level Estimated
05:46PM -20.2581 -40.2864 13° North  Level Estimated
05:47PM -20.2581 -40.2864 13° North  Level Estimated
05:48PM -20.2581 -40.2864 13° North  Level Estimated
05:49PM -20.2581 -40.2864 13° North  Level Estimated
05:50PM -20.2581 -40.2864 13° North  Level Estimated
05:51PM -20.2581 -40.2864 13° North  Level Estimated
05:52PM -20.2581 -40.2864 13° North  Level Estimated
05:53PM -20.2581 -40.2864 13° North  Level Estimated
05:54PM -20.2581 -40.2864 13° North  Level Estimated